Loodiep — A8ZO7 — position and weather

sailwx.info

Track history (hours):
 
Tides and Currents Weather Stations Pressure Air Temp Water Temp Dewpoint Dewpoint Depression Visibility Wind Speed Wind Dir Waves Ship Positions

Loodiep

Last reported at 2014-Nov-16 07:09 UTC. Time now 2014-Nov-26 01:34 UTC.
Position N 35°55' E 024°05'.
Warning: this ship's position is 9 days out of date.

Length 108 m; draft 5.7 m.

Type: Cargo ship. MMSI: 636015263.

Date/timePositionNaut miles runAvg speedWind from/ knotsBaromVisibWave heightAir tempDewpointWater temp
2014-Nov-16 07:09N 35°55' E 024°05'711.3
2014-Nov-16 06:32N 35°55' E 024°13'1111.4
2014-Nov-16 05:33N 35°53' E 024°27'1111.3
2014-Nov-16 04:33N 35°52' E 024°41'1211.5
2014-Nov-16 03:33N 35°51' E 024°55'1111.4
2014-Nov-16 02:33N 35°49' E 025°09'1111.1
2014-Nov-16 01:33N 35°47' E 025°22'1110.7
2014-Nov-16 00:33N 35°46' E 025°35'1110.6
2014-Nov-15 23:33N 35°41' E 025°47'  
2014-Nov-11 12:16N 32°49' E 035°02'0 0.0
2014-Nov-11 10:28N 32°49' E 035°02'  
Track history (hours):
 
Tides and Currents Weather Stations Pressure Air Temp Water Temp Dewpoint Dewpoint Depression Visibility Wind Speed Wind Dir Waves Ship Positions

Loodiep

Last reported at 2014-Nov-16 07:09 UTC. Time now 2014-Nov-26 01:34 UTC.
Position N 35°55' E 024°05'.
Warning: this ship's position is 9 days out of date.

Length 108 m; draft 5.7 m.

Type: Cargo ship. MMSI: 636015263.

Date/timePositionNaut miles runAvg speedWind from/ knotsBaromVisibWave heightAir tempDewpointWater temp
2014-Nov-16 07:09N 35°55' E 024°05'711.3
2014-Nov-16 06:32N 35°55' E 024°13'1111.4
2014-Nov-16 05:33N 35°53' E 024°27'1111.3
2014-Nov-16 04:33N 35°52' E 024°41'1211.5
2014-Nov-16 03:33N 35°51' E 024°55'1111.4
2014-Nov-16 02:33N 35°49' E 025°09'1111.1
2014-Nov-16 01:33N 35°47' E 025°22'1110.7
2014-Nov-16 00:33N 35°46' E 025°35'1110.6
2014-Nov-15 23:33N 35°41' E 025°47'  
2014-Nov-11 12:16N 32°49' E 035°02'0 0.0
2014-Nov-11 10:28N 32°49' E 035°02'  

Dump ship's entire track history